Albuquerque International Sunport, NM

9:51 AM MDT on September 30, 2014 (GMT -0600)
Santa Fe Municipal | Change Station
CLOSE
Current Station
Airport
Location: Santa Fe,
Elevation: 6345 ft
Nearby Weather Stations

Elev 6345 ft 35.62 °N, 106.09 °W | Updated 58 minutes ago

Clear
Clear
53 °F
Feels Like 53 °F
N
10
Wind Variable Wind from North

Today
High -- | Low -- °F
--% Chance of Precip.
Yesterday
High -- | Low -- °F
Precip. -- in
7:00 AM 6:51 PM
Waxing Crescent, 37% visible
Pressure 29.88 in
Visibility 10.0 miles
Clouds Clear
Dew Point 33 °F
Humidity 47%
Rainfall 0.00 in
Snow Depth 0 in , 0 in , 1 in
UV 2 out of 12
Pollen 5.80 out of 12
Air Quality Not available.
Flu Activity Not available.
METAR KSAF 301453Z 36009KT 10SM CLR 12/01 A3006 RMK AO2 SLP117 T01170006 51002

More Conditions Fewer Conditions

Pressure 29.88 in
Visibility 10.0 miles
Clouds Clear
Dew Point 33 °F
Humidity 47%
Rainfall 0.00 in
Snow Depth 0 in , 0 in , 1 in
UV 2 out of 12
Pollen 5.80 out of 12
Air Quality Not available.
Flu Activity Not available.
METAR KSAF 301453Z 36009KT 10SM CLR 12/01 A3006 RMK AO2 SLP117 T01170006 51002

More Conditions Fewer Conditions

10-Day Weather Forecast

Almanac

Astronomy

Sep. 30, 2014 Rise Set
Actual Time 7:00 AM MDT 6:51 PM MDT
Civil Twilight 6:35 AM MDT 7:16 PM MDT
Nautical Twilight 6:05 AM MDT 7:46 PM MDT
Astronomical Twilight 5:36 AM MDT 8:15 PM MDT
Moon 1:00 PM MDT 11:34 PM MDT
Length of Visible Light 12h 41m
Length of Day
11h 51m
Tomorrow will be 2m 10s shorter.
Waxing Crescent, 37% of the Moon is Illuminated
Today
Waxing Crescent
Oct 1
First Quarter
Oct 8
Full
Oct 15
Last Quarter
Oct 23
New

Today's Extremes

State Highs State Lows

Community

WunderPhotos

Upload Photos

1,757,671 photos uploaded!

Nearby

Snow Depth

Station Depth Elevation
Rice Park 0 in 8460 ft
Frisco Divide 0 in 8000 ft
Santa Fe 0 in 11445 ft
Tolby 1 in 10180 ft
Silver Creek Divide 17 in 9000 ft

Earthquake Activity

City Distance Mag. Time & Date
No recent earthquake activity has been reported nearby.
Minimum magnitude displayed is 2.5.

Coastal Water Temperatures

Place Temperature
No Stations Reporting

Nearby Weather Stations